X  Sluiten METAR luchtvaart weer gegevens      EHRD Rotterdam The Hague Airport
Temperatuur
15°C Temperatuur
12°C Dauwpunt
82% Vochtigheid



Wind
10 KM/U
6 MPH
3 M/S
5 KTS



230°
ZW
Huidig weer

Wat bewolking Wat bewolking
Luchtdruk 1026.92 (hPa) - 30.32 (inHg)
Zicht 6.2 (mijl) - 10 (km)
Vliegveld
Vliegveld code EHRD

Locatie : Rotterdam The Hague Airport
Afstand: 16 (km)

Metar:
EHRD 031025Z AUTO 23005KT 9999 FEW033 OVC038 15/12 Q1027 NOSIG

Tijd: 03-10-2022 12:25 CEST